This demonstration page uses our WeatherBlox Daily Observations layout. Learn more.

39.29038, -76.61219

Hourly Observations for July 8, 2017

Temp ( °F °C ) Dew Point ( °F °C ) Humidity (%) Winds ( mph kmh ) Pressure ( in mb ) Visibility ( mi km ) Precip ( " mm )
12:54 am 00:54 undefined 79 26.1 63 17.2 58 58 undefined N/A 29.8 1009 N/A 0 0
1:54 am 01:54 undefined 77 25 62 16.7 60 60 undefined N/A 29.77 1008 N/A 0 0
2:54 am 02:54 undefined 77 25 62 16.7 60 60 undefined N/A 29.77 1008 N/A 0 0
3:54 am 03:54 undefined 77 25 62 16.7 60 60 undefined N/A 29.77 1008 N/A 0 0
4:54 am 04:54 undefined 76 24.4 62 16.7 62 62 undefined N/A 29.77 1008 N/A 0 0
5:54 am 05:54 undefined 77 25 62 16.7 60 60 undefined N/A 29.77 1008 N/A 0 0
6:54 am 06:54 undefined 78 25.6 62 16.7 58 58 undefined N/A 29.8 1009 N/A 0 0
7:54 am 07:54 undefined 80 26.7 63 17.2 56 56 undefined N/A 29.83 1010 N/A 0 0
8:54 am 08:54 undefined 81 27.2 63 17.2 54 54 undefined N/A 29.83 1010 N/A 0 0
9:54 am 09:54 undefined 83 28.3 65 18.3 55 55 undefined N/A 29.83 1010 N/A 0 0
10:54 am 10:54 undefined 84 28.9 65 18.3 53 53 undefined N/A 29.83 1010 N/A 0 0
11:54 am 11:54 undefined 86 30 65 18.3 49 49 undefined N/A 29.83 1010 N/A 0 0
1:54 pm 13:54 undefined 87 30.6 64 17.8 46 46 undefined N/A 29.83 1010 N/A 0 0
2:54 pm 14:54 undefined 87 30.6 63 17.2 45 45 undefined N/A 29.8 1009 N/A 0 0
3:54 pm 15:54 undefined 89 31.7 62 16.7 41 41 undefined N/A 29.8 1009 N/A 0 0
4:54 pm 16:54 undefined 89 31.7 61 16.1 39 39 undefined N/A 29.8 1009 N/A 0 0
5:54 pm 17:54 undefined 88 31.1 61 16.1 40 40 undefined N/A 29.77 1008 N/A 0 0
6:54 pm 18:54 undefined 87 30.6 61 16.1 42 42 undefined N/A 29.8 1009 N/A 0 0
7:54 pm 19:54 undefined 83 28.3 61 16.1 48 48 undefined N/A 29.83 1010 N/A 0 0
8:54 pm 20:54 undefined 79 26.1 55 12.8 44 44 undefined N/A 29.83 1010 N/A 0 0
9:54 pm 21:54 undefined 79 26.1 55 12.8 44 44 undefined N/A 29.88 1012 N/A 0 0
10:54 pm 22:54 undefined 77 25 57 13.9 50 50 undefined N/A 29.88 1012 N/A 0 0
11:54 pm 23:54 undefined 76 24.4 59 15 56 56 undefined N/A 29.91 1013 N/A 0 0

Powered by AerisWeather